Terminal Aerodrome Forecast
Issued by NWS

Home | Current Version | Previous Version | Graphics & Text | Print | Product List | Glossary On
Versions: 1 2 3 4 5 6 7 8 9 10 11 12 13 14 15 16 17 18 19 20 21
000
FTUS43 KGRB 010400 AAC
TAFATW
TAF AMD
KATW 010437Z 0105/0124 04012G22KT P6SM OVC018
     FM010900 03016G25KT 5SM -SN BKN030
     FM011400 03015G25KT 2SM -SN BKN021
     FM012100 03017G27KT 6SM -SHSN SCT025 BKN050=

USA.gov is the U.S. government's official web portal to all federal, state and local government web resources and services.